sensor_id;sensor_type;location;lat;lon;timestamp;pressure;altitude;pressure_sealevel;temperature;humidity
62980;BME280;49075;53.988;27.678;2023-01-29T00:01:33;990.2;;;-2.7;72.9
62980;BME280;49075;53.988;27.678;2023-01-29T00:06:37;990.2;;;-2.7;72.9
62980;BME280;49075;53.988;27.678;2023-01-29T00:11:35;990.1;;;-2.8;71.5
62980;BME280;49075;53.988;27.678;2023-01-29T00:16:33;990.1;;;-2.7;72
62980;BME280;49075;53.988;27.678;2023-01-29T00:21:13;990.2;;;-2.8;70.9
62980;BME280;49075;53.988;27.678;2023-01-29T00:26:23;990.1;;;-2.8;71.7
62980;BME280;49075;53.988;27.678;2023-01-29T00:31:25;990.2;;;-2.9;71.1
62980;BME280;49075;53.988;27.678;2023-01-29T00:36:31;990.1;;;-2.8;71.7
62980;BME280;49075;53.988;27.678;2023-01-29T00:41:35;990.1;;;-2.8;71.1
62980;BME280;49075;53.988;27.678;2023-01-29T00:46:31;989.9;;;-2.8;71.4
62980;BME280;49075;53.988;27.678;2023-01-29T00:51:47;989.9;;;-2.8;71.3
62980;BME280;49075;53.988;27.678;2023-01-29T00:56:23;989.8;;;-2.7;71.3
62980;BME280;49075;53.988;27.678;2023-01-29T01:01:35;989.9;;;-2.8;71.5
62980;BME280;49075;53.988;27.678;2023-01-29T01:06:13;989.8;;;-2.8;71.2
62980;BME280;49075;53.988;27.678;2023-01-29T01:11:33;989.7;;;-2.7;71.4
62980;BME280;49075;53.988;27.678;2023-01-29T01:16:35;989.8;;;-2.8;70.8
62980;BME280;49075;53.988;27.678;2023-01-29T01:21:23;989.7;;;-2.7;71.3
62980;BME280;49075;53.988;27.678;2023-01-29T01:26:37;989.7;;;-2.8;70.9
62980;BME280;49075;53.988;27.678;2023-01-29T01:31:21;989.7;;;-2.8;71.2
62980;BME280;49075;53.988;27.678;2023-01-29T01:36:13;989.7;;;-2.8;70.9
62980;BME280;49075;53.988;27.678;2023-01-29T01:41:23;989.7;;;-2.8;71.2
62980;BME280;49075;53.988;27.678;2023-01-29T01:46:13;989.7;;;-2.9;70.8
62980;BME280;49075;53.988;27.678;2023-01-29T01:51:31;989.7;;;-2.9;70.8
62980;BME280;49075;53.988;27.678;2023-01-29T01:56:22;989.7;;;-2.9;70.7
62980;BME280;49075;53.988;27.678;2023-01-29T02:01:23;989.7;;;-2.9;70.4
62980;BME280;49075;53.988;27.678;2023-01-29T02:06:23;989.6;;;-2.9;70.6
62980;BME280;49075;53.988;27.678;2023-01-29T02:11:13;989.6;;;-2.9;70.6
62980;BME280;49075;53.988;27.678;2023-01-29T02:16:35;989.5;;;-3;70.8
62980;BME280;49075;53.988;27.678;2023-01-29T02:21:39;989.5;;;-3;70.7
62980;BME280;49075;53.988;27.678;2023-01-29T02:26:31;989.6;;;-3;71
62980;BME280;49075;53.988;27.678;2023-01-29T02:31:28;989.7;;;-3.1;71
62980;BME280;49075;53.988;27.678;2023-01-29T02:36:19;989.6;;;-3.1;71.3
62980;BME280;49075;53.988;27.678;2023-01-29T02:41:25;989.5;;;-3.2;71.3
62980;BME280;49075;53.988;27.678;2023-01-29T02:46:15;989.5;;;-3.2;71.6
62980;BME280;49075;53.988;27.678;2023-01-29T02:51:37;989.4;;;-3.3;71.5
62980;BME280;49075;53.988;27.678;2023-01-29T02:56:15;989.3;;;-3.3;71.9
62980;BME280;49075;53.988;27.678;2023-01-29T03:01:26;989.4;;;-3.4;71.8
62980;BME280;49075;53.988;27.678;2023-01-29T03:06:17;989.4;;;-3.4;72.1
62980;BME280;49075;53.988;27.678;2023-01-29T03:11:28;989.3;;;-3.3;72.1
62980;BME280;49075;53.988;27.678;2023-01-29T03:16:17;989.3;;;-3.5;70.7
62980;BME280;49075;53.988;27.678;2023-01-29T03:21:16;989.2;;;-3.6;70.3
62980;BME280;49075;53.988;27.678;2023-01-29T03:26:37;989.2;;;-3.8;69.4
62980;BME280;49075;53.988;27.678;2023-01-29T03:31:29;989.2;;;-3.8;69.9
62980;BME280;49075;53.988;27.678;2023-01-29T03:36:17;989.2;;;-3.8;69.1
62980;BME280;49075;53.988;27.678;2023-01-29T03:41:19;989.1;;;-3.8;69.7
62980;BME280;49075;53.988;27.678;2023-01-29T03:46:17;989.1;;;-3.8;69.2
62980;BME280;49075;53.988;27.678;2023-01-29T03:51:30;989;;;-3.8;69.9
62980;BME280;49075;53.988;27.678;2023-01-29T03:56:31;988.9;;;-3.8;69.9
62980;BME280;49075;53.988;27.678;2023-01-29T04:01:17;988.9;;;-3.8;70.2
62980;BME280;49075;53.988;27.678;2023-01-29T04:06:17;988.9;;;-3.9;70.2
62980;BME280;49075;53.988;27.678;2023-01-29T04:11:17;988.8;;;-3.9;70.1
62980;BME280;49075;53.988;27.678;2023-01-29T04:16:27;988.7;;;-4.2;70.1
62980;BME280;49075;53.988;27.678;2023-01-29T04:21:45;988.6;;;-4.2;70.7
62980;BME280;49075;53.988;27.678;2023-01-29T04:26:32;988.5;;;-4.2;70.3
62980;BME280;49075;53.988;27.678;2023-01-29T04:31:37;988.5;;;-4.1;70.4
62980;BME280;49075;53.988;27.678;2023-01-29T04:36:37;988.4;;;-4.2;70.2
62980;BME280;49075;53.988;27.678;2023-01-29T04:41:28;988.4;;;-4.1;70.1
62980;BME280;49075;53.988;27.678;2023-01-29T04:46:17;988.5;;;-4.1;70.5
62980;BME280;49075;53.988;27.678;2023-01-29T04:51:18;988.5;;;-4.1;70.1
62980;BME280;49075;53.988;27.678;2023-01-29T04:56:39;988.5;;;-4;70.5
62980;BME280;49075;53.988;27.678;2023-01-29T05:01:25;988.5;;;-4;69.9
62980;BME280;49075;53.988;27.678;2023-01-29T05:06:17;988.5;;;-4;70.4
62980;BME280;49075;53.988;27.678;2023-01-29T05:11:17;988.5;;;-4;69.9
62980;BME280;49075;53.988;27.678;2023-01-29T05:16:18;988.4;;;-4;70.4
62980;BME280;49075;53.988;27.678;2023-01-29T05:21:39;988.4;;;-4.1;69.9
62980;BME280;49075;53.988;27.678;2023-01-29T05:26:17;988.4;;;-4.2;70.1
62980;BME280;49075;53.988;27.678;2023-01-29T05:31:29;988.4;;;-4.2;69.6
62980;BME280;49075;53.988;27.678;2023-01-29T05:36:17;988.4;;;-4.2;69.9
62980;BME280;49075;53.988;27.678;2023-01-29T05:41:15;988.4;;;-4.4;69.8
62980;BME280;49075;53.988;27.678;2023-01-29T05:46:15;988.4;;;-4.4;69.9
62980;BME280;49075;53.988;27.678;2023-01-29T05:51:29;988.4;;;-4.3;69.9
62980;BME280;49075;53.988;27.678;2023-01-29T05:56:27;988.5;;;-4.3;69.9
62980;BME280;49075;53.988;27.678;2023-01-29T06:01:27;988.5;;;-4.3;70.1
62980;BME280;49075;53.988;27.678;2023-01-29T06:06:49;988.6;;;-4.3;70.1
62980;BME280;49075;53.988;27.678;2023-01-29T06:11:49;988.6;;;-4.3;70.3
62980;BME280;49075;53.988;27.678;2023-01-29T06:16:17;988.6;;;-4.4;70.2
62980;BME280;49075;53.988;27.678;2023-01-29T06:21:17;988.6;;;-4.4;70.5
62980;BME280;49075;53.988;27.678;2023-01-29T06:26:29;988.5;;;-4.3;70.4
62980;BME280;49075;53.988;27.678;2023-01-29T06:31:35;988.4;;;-4.3;70.6
62980;BME280;49075;53.988;27.678;2023-01-29T06:36:15;988.3;;;-4.2;70.5
62980;BME280;49075;53.988;27.678;2023-01-29T06:41:16;988.4;;;-4.3;70.6
62980;BME280;49075;53.988;27.678;2023-01-29T06:46:37;988.3;;;-4.1;70.4
62980;BME280;49075;53.988;27.678;2023-01-29T06:51:17;988.2;;;-4.2;70.2
62980;BME280;49075;53.988;27.678;2023-01-29T06:56:17;988.2;;;-4.2;70.2
62980;BME280;49075;53.988;27.678;2023-01-29T07:01:45;988.1;;;-4.1;70.2
62980;BME280;49075;53.988;27.678;2023-01-29T07:06:27;988;;;-4.1;69.9
62980;BME280;49075;53.988;27.678;2023-01-29T07:11:17;988;;;-4.2;70.1
62980;BME280;49075;53.988;27.678;2023-01-29T07:16:29;988;;;-4.1;69.7
62980;BME280;49075;53.988;27.678;2023-01-29T07:21:17;988;;;-4.2;70.1
62980;BME280;49075;53.988;27.678;2023-01-29T07:26:29;988;;;-4.2;69.8
62980;BME280;49075;53.988;27.678;2023-01-29T07:31:47;987.9;;;-4.2;70.1
62980;BME280;49075;53.988;27.678;2023-01-29T07:36:27;987.8;;;-4.1;69.5
62980;BME280;49075;53.988;27.678;2023-01-29T07:41:17;987.8;;;-4.1;69.8
62980;BME280;49075;53.988;27.678;2023-01-29T07:46:17;987.8;;;-4.2;69.8
62980;BME280;49075;53.988;27.678;2023-01-29T07:51:17;987.7;;;-4.1;70.2
62980;BME280;49075;53.988;27.678;2023-01-29T07:56:39;987.6;;;-4.2;70.3
62980;BME280;49075;53.988;27.678;2023-01-29T08:01:23;987.6;;;-4.1;70.3
62980;BME280;49075;53.988;27.678;2023-01-29T08:06:37;987.6;;;-4.2;70.3
62980;BME280;49075;53.988;27.678;2023-01-29T08:11:47;987.6;;;-4.2;70.9
62980;BME280;49075;53.988;27.678;2023-01-29T08:16:29;987.6;;;-3.9;70.4
62980;BME280;49075;53.988;27.678;2023-01-29T08:21:17;987.6;;;-3.9;70.2
62980;BME280;49075;53.988;27.678;2023-01-29T08:26:17;987.5;;;-3.8;69.8
62980;BME280;49075;53.988;27.678;2023-01-29T08:31:37;987.5;;;-3.8;69.9
62980;BME280;49075;53.988;27.678;2023-01-29T08:36:15;987.5;;;-3.8;69.6
62980;BME280;49075;53.988;27.678;2023-01-29T08:41:35;987.5;;;-3.7;69.8
62980;BME280;49075;53.988;27.678;2023-01-29T08:46:17;987.5;;;-3.7;69.7
62980;BME280;49075;53.988;27.678;2023-01-29T08:51:30;987.4;;;-3.7;69.8
62980;BME280;49075;53.988;27.678;2023-01-29T08:56:27;987.3;;;-3.7;69.8
62980;BME280;49075;53.988;27.678;2023-01-29T09:01:17;987.2;;;-3.7;69.9
62980;BME280;49075;53.988;27.678;2023-01-29T09:06:27;987.1;;;-3.6;69.8
62980;BME280;49075;53.988;27.678;2023-01-29T09:11:27;987.1;;;-3.3;69.9
62980;BME280;49075;53.988;27.678;2023-01-29T09:16:27;987;;;-3.3;69.4
62980;BME280;49075;53.988;27.678;2023-01-29T09:21:27;986.9;;;-3.5;70.2
62980;BME280;49075;53.988;27.678;2023-01-29T09:26:37;986.8;;;-3.3;69.9
62980;BME280;49075;53.988;27.678;2023-01-29T09:31:35;986.7;;;-3.2;70.3
62980;BME280;49075;53.988;27.678;2023-01-29T09:36:15;986.7;;;-3.2;70.1
62980;BME280;49075;53.988;27.678;2023-01-29T09:41:38;986.6;;;-3;70
62980;BME280;49075;53.988;27.678;2023-01-29T09:46:18;986.6;;;-2.9;70
62980;BME280;49075;53.988;27.678;2023-01-29T09:51:28;986.5;;;-2.9;70.2
62980;BME280;49075;53.988;27.678;2023-01-29T09:56:27;986.4;;;-3;70.5
62980;BME280;49075;53.988;27.678;2023-01-29T10:01:16;986.2;;;-2.8;70.4
62980;BME280;49075;53.988;27.678;2023-01-29T10:06:41;986.2;;;-2.9;70.4
62980;BME280;49075;53.988;27.678;2023-01-29T10:11:17;986.1;;;-2.9;70.5
62980;BME280;49075;53.988;27.678;2023-01-29T10:16:40;986.1;;;-3;70.6
62980;BME280;49075;53.988;27.678;2023-01-29T10:21:22;986.1;;;-2.9;70.8
62980;BME280;49075;53.988;27.678;2023-01-29T10:26:15;986;;;-3;70.8
62980;BME280;49075;53.988;27.678;2023-01-29T10:31:16;986;;;-3;70.7
62980;BME280;49075;53.988;27.678;2023-01-29T10:36:17;986;;;-3;71
62980;BME280;49075;53.988;27.678;2023-01-29T10:41:29;985.9;;;-3.1;71
62980;BME280;49075;53.988;27.678;2023-01-29T10:46:27;985.9;;;-3;71.1
62980;BME280;49075;53.988;27.678;2023-01-29T10:51:29;985.8;;;-3;71.2
62980;BME280;49075;53.988;27.678;2023-01-29T10:56:27;985.7;;;-2.9;71.2
62980;BME280;49075;53.988;27.678;2023-01-29T11:01:15;985.7;;;-3.1;71.8
62980;BME280;49075;53.988;27.678;2023-01-29T11:06:27;985.6;;;-2.9;71.4
62980;BME280;49075;53.988;27.678;2023-01-29T11:11:35;985.5;;;-2.9;71.6
62980;BME280;49075;53.988;27.678;2023-01-29T11:16:25;985.4;;;-2.6;71.4
62980;BME280;49075;53.988;27.678;2023-01-29T11:21:25;985.4;;;-2.5;70.9
62980;BME280;49075;53.988;27.678;2023-01-29T11:26:16;985.3;;;-2.8;71.6
62980;BME280;49075;53.988;27.678;2023-01-29T11:31:24;985.2;;;-2.7;71.8
62980;BME280;49075;53.988;27.678;2023-01-29T11:36:29;985.2;;;-2.8;72.3
62980;BME280;49075;53.988;27.678;2023-01-29T11:41:15;985.1;;;-2.9;73.1
62980;BME280;49075;53.988;27.678;2023-01-29T11:46:37;985;;;-3;73.3
62980;BME280;49075;53.988;27.678;2023-01-29T11:51:26;985;;;-2.8;73
62980;BME280;49075;53.988;27.678;2023-01-29T11:56:16;984.9;;;-2.9;73.4
62980;BME280;49075;53.988;27.678;2023-01-29T12:01:15;984.9;;;-2.7;73
62980;BME280;49075;53.988;27.678;2023-01-29T12:06:27;984.9;;;-2.7;73.1
62980;BME280;49075;53.988;27.678;2023-01-29T12:11:23;984.9;;;-2.4;72.7
62980;BME280;49075;53.988;27.678;2023-01-29T12:16:48;984.9;;;-2.5;73.1
62980;BME280;49075;53.988;27.678;2023-01-29T12:21:17;985;;;-2.6;73.6
62980;BME280;49075;53.988;27.678;2023-01-29T12:26:15;985;;;-2.6;73.7
62980;BME280;49075;53.988;27.678;2023-01-29T12:31:18;985;;;-2.4;73.4
62980;BME280;49075;53.988;27.678;2023-01-29T12:36:25;985;;;-2.3;73.2
62980;BME280;49075;53.988;27.678;2023-01-29T12:41:29;985;;;-2.5;73.9
62980;BME280;49075;53.988;27.678;2023-01-29T12:46:48;985;;;-2.5;74
62980;BME280;49075;53.988;27.678;2023-01-29T12:51:16;985;;;-2.5;74.1
62980;BME280;49075;53.988;27.678;2023-01-29T12:56:25;985;;;-2.5;74.1
62980;BME280;49075;53.988;27.678;2023-01-29T13:01:35;985;;;-2.6;74.7
62980;BME280;49075;53.988;27.678;2023-01-29T13:06:27;985;;;-2.4;73.8
62980;BME280;49075;53.988;27.678;2023-01-29T13:11:38;984.9;;;-2.4;74
62980;BME280;49075;53.988;27.678;2023-01-29T13:16:49;984.9;;;-2.5;74.3
62980;BME280;49075;53.988;27.678;2023-01-29T13:21:26;984.8;;;-2.4;74.2
62980;BME280;49075;53.988;27.678;2023-01-29T13:26:37;984.8;;;-2.5;74.4
62980;BME280;49075;53.988;27.678;2023-01-29T13:31:35;984.8;;;-2.5;74.4
62980;BME280;49075;53.988;27.678;2023-01-29T13:36:27;984.7;;;-2.6;74.8
62980;BME280;49075;53.988;27.678;2023-01-29T13:41:29;984.6;;;-2.5;74.4
62980;BME280;49075;53.988;27.678;2023-01-29T13:46:16;984.6;;;-2.4;74.3
62980;BME280;49075;53.988;27.678;2023-01-29T13:51:15;984.7;;;-2.5;74.3
62980;BME280;49075;53.988;27.678;2023-01-29T13:56:45;984.6;;;-2.6;74.8
62980;BME280;49075;53.988;27.678;2023-01-29T14:01:59;984.6;;;-2.6;74.5
62980;BME280;49075;53.988;27.678;2023-01-29T14:06:39;984.6;;;-2.7;75.2
62980;BME280;49075;53.988;27.678;2023-01-29T14:11:33;984.6;;;-2.7;75
62980;BME280;49075;53.988;27.678;2023-01-29T14:16:25;984.6;;;-2.7;75.2
62980;BME280;49075;53.988;27.678;2023-01-29T14:21:26;984.6;;;-2.7;75
62980;BME280;49075;53.988;27.678;2023-01-29T14:26:40;984.6;;;-2.8;75.7
62980;BME280;49075;53.988;27.678;2023-01-29T14:31:27;984.6;;;-2.8;75.5
62980;BME280;49075;53.988;27.678;2023-01-29T14:36:15;984.5;;;-2.8;75.5
62980;BME280;49075;53.988;27.678;2023-01-29T14:41:27;984.4;;;-2.7;75.3
62980;BME280;49075;53.988;27.678;2023-01-29T14:46:47;984.4;;;-2.8;75.3
62980;BME280;49075;53.988;27.678;2023-01-29T14:51:15;984.4;;;-2.6;74.9
62980;BME280;49075;53.988;27.678;2023-01-29T14:56:39;984.3;;;-2.7;74.8
62980;BME280;49075;53.988;27.678;2023-01-29T15:01:37;984.1;;;-2.9;75.5
62980;BME280;49075;53.988;27.678;2023-01-29T15:06:16;984;;;-3;75.7
62980;BME280;49075;53.988;27.678;2023-01-29T15:11:26;984;;;-2.9;75.6
62980;BME280;49075;53.988;27.678;2023-01-29T15:16:16;984;;;-2.8;75.3
62980;BME280;49075;53.988;27.678;2023-01-29T15:21:37;983.9;;;-2.9;75.7
62980;BME280;49075;53.988;27.678;2023-01-29T15:26:25;983.9;;;-2.7;75
62980;BME280;49075;53.988;27.678;2023-01-29T15:31:15;983.8;;;-2.7;75
62980;BME280;49075;53.988;27.678;2023-01-29T15:36:26;983.9;;;-2.7;75.3
62980;BME280;49075;53.988;27.678;2023-01-29T15:41:16;983.8;;;-2.8;75.5
62980;BME280;49075;53.988;27.678;2023-01-29T15:46:26;983.8;;;-2.7;75.2
62980;BME280;49075;53.988;27.678;2023-01-29T15:51:17;983.8;;;-2.6;75.3
62980;BME280;49075;53.988;27.678;2023-01-29T15:56:27;983.9;;;-2.6;75.2
62980;BME280;49075;53.988;27.678;2023-01-29T16:01:27;983.8;;;-2.6;75.4
62980;BME280;49075;53.988;27.678;2023-01-29T16:06:17;983.8;;;-2.5;75.2
62980;BME280;49075;53.988;27.678;2023-01-29T16:11:37;983.7;;;-2.6;75.8
62980;BME280;49075;53.988;27.678;2023-01-29T16:16:35;983.8;;;-2.5;75.4
62980;BME280;49075;53.988;27.678;2023-01-29T16:21:28;983.7;;;-2.6;76
62980;BME280;49075;53.988;27.678;2023-01-29T16:26:17;983.7;;;-2.6;76
62980;BME280;49075;53.988;27.678;2023-01-29T16:31:19;983.7;;;-2.7;76.4
62980;BME280;49075;53.988;27.678;2023-01-29T16:36:25;983.8;;;-2.6;76.1
62980;BME280;49075;53.988;27.678;2023-01-29T16:41:26;983.6;;;-2.6;76.5
62980;BME280;49075;53.988;27.678;2023-01-29T16:46:33;983.7;;;-2.7;76.6
62980;BME280;49075;53.988;27.678;2023-01-29T16:51:27;983.6;;;-2.6;76.3
62980;BME280;49075;53.988;27.678;2023-01-29T16:56:30;983.6;;;-2.5;76.3
62980;BME280;49075;53.988;27.678;2023-01-29T17:01:37;983.5;;;-2.5;76.2
62980;BME280;49075;53.988;27.678;2023-01-29T17:06:25;983.4;;;-2.4;76
62980;BME280;49075;53.988;27.678;2023-01-29T17:11:26;983.4;;;-2.6;76.6
62980;BME280;49075;53.988;27.678;2023-01-29T17:16:27;983.4;;;-2.5;76.3
62980;BME280;49075;53.988;27.678;2023-01-29T17:21:17;983.4;;;-2.4;75.9
62980;BME280;49075;53.988;27.678;2023-01-29T17:26:27;983.4;;;-2.5;76.3
62980;BME280;49075;53.988;27.678;2023-01-29T17:31:17;983.3;;;-2.5;76.2
62980;BME280;49075;53.988;27.678;2023-01-29T17:36:17;983.3;;;-2.6;76.7
62980;BME280;49075;53.988;27.678;2023-01-29T17:41:26;983.2;;;-2.7;76.9
62980;BME280;49075;53.988;27.678;2023-01-29T17:46:27;983;;;-2.7;77.2
62980;BME280;49075;53.988;27.678;2023-01-29T17:51:17;982.9;;;-2.5;76.8
62980;BME280;49075;53.988;27.678;2023-01-29T17:56:17;982.9;;;-2.7;77.3
62980;BME280;49075;53.988;27.678;2023-01-29T18:01:25;982.8;;;-2.8;77.8
62980;BME280;49075;53.988;27.678;2023-01-29T18:06:27;982.8;;;-2.7;77.6
62980;BME280;49075;53.988;27.678;2023-01-29T18:11:15;982.8;;;-2.7;77.6
62980;BME280;49075;53.988;27.678;2023-01-29T18:16:15;982.7;;;-2.6;77.4
62980;BME280;49075;53.988;27.678;2023-01-29T18:21:35;982.6;;;-2.7;77.6
62980;BME280;49075;53.988;27.678;2023-01-29T18:26:17;982.5;;;-2.8;77.9
62980;BME280;49075;53.988;27.678;2023-01-29T18:31:25;982.5;;;-2.9;78.2
62980;BME280;49075;53.988;27.678;2023-01-29T18:36:23;982.4;;;-3;79.1
62980;BME280;49075;53.988;27.678;2023-01-29T18:41:25;982.4;;;-3;79.1
62980;BME280;49075;53.988;27.678;2023-01-29T18:46:25;982.2;;;-3;79.3
62980;BME280;49075;53.988;27.678;2023-01-29T18:51:15;982.1;;;-2.8;78.2
62980;BME280;49075;53.988;27.678;2023-01-29T18:56:35;982.1;;;-2.9;78.3
62980;BME280;49075;53.988;27.678;2023-01-29T19:01:29;982;;;-3;78.7
62980;BME280;49075;53.988;27.678;2023-01-29T19:06:17;981.9;;;-3.1;78.9
62980;BME280;49075;53.988;27.678;2023-01-29T19:11:15;981.9;;;-3.1;79.1
62980;BME280;49075;53.988;27.678;2023-01-29T19:16:25;981.8;;;-3.1;78.9
62980;BME280;49075;53.988;27.678;2023-01-29T19:21:27;981.9;;;-3;78.7
62980;BME280;49075;53.988;27.678;2023-01-29T19:26:25;981.9;;;-3;79.1
62980;BME280;49075;53.988;27.678;2023-01-29T19:31:23;981.9;;;-3.1;79.5
62980;BME280;49075;53.988;27.678;2023-01-29T19:36:15;981.8;;;-3.1;80
62980;BME280;49075;53.988;27.678;2023-01-29T19:41:27;981.9;;;-3.1;79.9
62980;BME280;49075;53.988;27.678;2023-01-29T19:46:17;981.9;;;-3.1;79.9
62980;BME280;49075;53.988;27.678;2023-01-29T19:51:37;981.8;;;-2.9;79.5
62980;BME280;49075;53.988;27.678;2023-01-29T19:56:29;981.7;;;-2.9;79.2
62980;BME280;49075;53.988;27.678;2023-01-29T20:01:23;981.7;;;-3;79.8
62980;BME280;49075;53.988;27.678;2023-01-29T20:06:16;981.6;;;-3;79.6
62980;BME280;49075;53.988;27.678;2023-01-29T20:11:29;981.6;;;-3;79.8
62980;BME280;49075;53.988;27.678;2023-01-29T20:16:27;981.6;;;-3;79.8
62980;BME280;49075;53.988;27.678;2023-01-29T20:21:27;981.6;;;-3;79.8
62980;BME280;49075;53.988;27.678;2023-01-29T20:26:29;981.5;;;-2.9;79.2
62980;BME280;49075;53.988;27.678;2023-01-29T20:31:25;981.4;;;-2.9;79.3
62980;BME280;49075;53.988;27.678;2023-01-29T20:36:15;981.4;;;-2.9;79.3
62980;BME280;49075;53.988;27.678;2023-01-29T20:41:27;981.4;;;-2.9;79.4
62980;BME280;49075;53.988;27.678;2023-01-29T20:46:15;981.4;;;-2.8;79
62980;BME280;49075;53.988;27.678;2023-01-29T20:51:25;981.3;;;-2.8;79
62980;BME280;49075;53.988;27.678;2023-01-29T20:56:25;981.1;;;-2.9;79.3
62980;BME280;49075;53.988;27.678;2023-01-29T21:01:15;981;;;-2.9;79.5
62980;BME280;49075;53.988;27.678;2023-01-29T21:06:27;981;;;-3.2;80.5
62980;BME280;49075;53.988;27.678;2023-01-29T21:11:27;980.9;;;-3;80.1
62980;BME280;49075;53.988;27.678;2023-01-29T21:16:39;980.8;;;-2.9;79.8
62980;BME280;49075;53.988;27.678;2023-01-29T21:21:27;980.9;;;-2.9;79.8
62980;BME280;49075;53.988;27.678;2023-01-29T21:26:15;980.9;;;-3;80.2
62980;BME280;49075;53.988;27.678;2023-01-29T21:31:25;981;;;-2.9;80.1
62980;BME280;49075;53.988;27.678;2023-01-29T21:36:17;980.9;;;-2.9;80.2
62980;BME280;49075;53.988;27.678;2023-01-29T21:41:27;980.8;;;-2.8;80.1
62980;BME280;49075;53.988;27.678;2023-01-29T21:46:17;980.7;;;-3;80.9
62980;BME280;49075;53.988;27.678;2023-01-29T21:51:15;980.6;;;-2.9;80.8
62980;BME280;49075;53.988;27.678;2023-01-29T21:56:35;980.4;;;-2.9;80.3
62980;BME280;49075;53.988;27.678;2023-01-29T22:01:49;980.3;;;-2.9;80.7
62980;BME280;49075;53.988;27.678;2023-01-29T22:06:37;980.3;;;-2.9;80.4
62980;BME280;49075;53.988;27.678;2023-01-29T22:11:17;980.2;;;-2.8;80
62980;BME280;49075;53.988;27.678;2023-01-29T22:16:39;980.1;;;-2.8;79.9
62980;BME280;49075;53.988;27.678;2023-01-29T22:21:17;980;;;-2.9;80.5
62980;BME280;49075;53.988;27.678;2023-01-29T22:26:27;980;;;-2.9;80.4
62980;BME280;49075;53.988;27.678;2023-01-29T22:31:29;980;;;-2.9;80.5
62980;BME280;49075;53.988;27.678;2023-01-29T22:36:37;979.8;;;-2.8;80
62980;BME280;49075;53.988;27.678;2023-01-29T22:41:29;979.7;;;-2.8;80.2
62980;BME280;49075;53.988;27.678;2023-01-29T22:46:37;979.5;;;-2.7;79.6
62980;BME280;49075;53.988;27.678;2023-01-29T22:51:41;979.4;;;-2.8;80.1
62980;BME280;49075;53.988;27.678;2023-01-29T22:56:25;979.4;;;-2.7;79.6
62980;BME280;49075;53.988;27.678;2023-01-29T23:01:24;979.4;;;-2.7;79.6
62980;BME280;49075;53.988;27.678;2023-01-29T23:06:23;979.3;;;-2.7;79.6
62980;BME280;49075;53.988;27.678;2023-01-29T23:11:14;979.2;;;-2.7;79.5
62980;BME280;49075;53.988;27.678;2023-01-29T23:16:13;979.2;;;-2.7;79.2
62980;BME280;49075;53.988;27.678;2023-01-29T23:21:33;979.1;;;-2.8;79.5
62980;BME280;49075;53.988;27.678;2023-01-29T23:26:37;979.1;;;-2.5;78.8
62980;BME280;49075;53.988;27.678;2023-01-29T23:31:13;979;;;-2.7;79.2
62980;BME280;49075;53.988;27.678;2023-01-29T23:36:13;978.9;;;-2.5;78.7
62980;BME280;49075;53.988;27.678;2023-01-29T23:41:31;978.8;;;-2.6;79.1
62980;BME280;49075;53.988;27.678;2023-01-29T23:46:37;978.7;;;-2.8;80
62980;BME280;49075;53.988;27.678;2023-01-29T23:51:13;978.6;;;-2.8;80
62980;BME280;49075;53.988;27.678;2023-01-29T23:56:35;978.6;;;-2.8;80.4
